TimePDT,TemperatureF,Dew PointF,Humidity,Sea Level PressureIn,VisibilityMPH,Wind Direction,Wind SpeedMPH,Gust SpeedMPH,PrecipitationIn,Events,Conditions,WindDirDegrees,DateUTC
12:56 AM,55.0,32.0,42,30.04,10.0,Calm,Calm,-,N/A,,Clear,0,2012-10-05 07:56:00
1:56 AM,54.0,33.1,45,30.04,10.0,SW,6.9,-,N/A,,Clear,220,2012-10-05 08:56:00
2:56 AM,54.0,32.0,43,30.03,10.0,SW,5.8,-,N/A,,Clear,230,2012-10-05 09:56:00
3:56 AM,52.0,30.9,45,30.02,10.0,SSW,6.9,-,N/A,,Clear,210,2012-10-05 10:56:00
4:56 AM,52.0,30.9,45,30.02,10.0,South,6.9,-,N/A,,Clear,190,2012-10-05 11:56:00
5:56 AM,51.1,30.9,46,30.03,10.0,South,6.9,-,N/A,,Clear,170,2012-10-05 12:56:00
6:56 AM,50.0,30.9,48,30.05,10.0,South,6.9,-,N/A,,Clear,170,2012-10-05 13:56:00
7:56 AM,52.0,28.9,41,30.05,10.0,SE,5.8,-,N/A,,Clear,140,2012-10-05 14:56:00
8:56 AM,55.0,30.0,38,30.05,10.0,SE,5.8,-,N/A,,Clear,130,2012-10-05 15:56:00
9:56 AM,57.9,32.0,37,30.05,10.0,Variable,4.6,-,N/A,,Clear,0,2012-10-05 16:56:00
10:56 AM,59.0,32.0,36,30.05,10.0,Variable,3.5,-,N/A,,Clear,0,2012-10-05 17:56:00
11:56 AM,60.1,33.1,36,30.05,10.0,Variable,3.5,-,N/A,,Clear,0,2012-10-05 18:56:00
12:56 PM,62.1,33.1,34,30.04,10.0,Calm,Calm,-,N/A,,Clear,0,2012-10-05 19:56:00
1:56 PM,62.1,33.1,34,30.04,10.0,Calm,Calm,-,N/A,,Clear,0,2012-10-05 20:56:00
2:56 PM,63.0,35.1,35,30.02,10.0,Calm,Calm,-,0.00,Rain,Light Rain,0,2012-10-05 21:56:00
3:56 PM,62.1,33.1,34,30.03,10.0,Variable,3.5,-,0.00,,Clear,0,2012-10-05 22:56:00
4:56 PM,60.1,30.9,33,30.02,10.0,NNW,3.5,-,N/A,,Clear,330,2012-10-05 23:56:00
5:56 PM,57.0,33.1,40,30.03,10.0,Variable,5.8,-,N/A,,Clear,0,2012-10-06 00:56:00
6:56 PM,54.0,30.9,41,30.05,10.0,NNW,11.5,18.4,N/A,,Clear,340,2012-10-06 01:56:00
7:56 PM,51.1,30.9,46,30.05,10.0,NNW,10.4,-,N/A,,Clear,340,2012-10-06 02:56:00
8:56 PM,50.0,33.1,52,30.05,10.0,NNW,11.5,-,N/A,,Clear,340,2012-10-06 03:56:00
9:56 PM,48.0,36.0,63,30.06,10.0,NNW,9.2,-,N/A,,Clear,340,2012-10-06 04:56:00
10:56 PM,46.9,39.0,74,30.06,10.0,North,11.5,-,N/A,,Clear,350,2012-10-06 05:56:00
11:56 PM,46.0,37.9,73,30.07,10.0,NNW,11.5,-,N/A,,Clear,340,2012-10-06 06:56:00